sensor_id;sensor_type;location;lat;lon;timestamp;P1;durP1;ratioP1;P2;durP2;ratioP2
27293;SDS011;14785;52.556;13.430;2023-08-24T00:00:37;14.73;;;13.47;;
27293;SDS011;14785;52.556;13.430;2023-08-24T00:03:03;11.13;;;10.20;;
27293;SDS011;14785;52.556;13.430;2023-08-24T00:05:33;15.83;;;14.60;;
27293;SDS011;14785;52.556;13.430;2023-08-24T00:08:00;15.35;;;13.55;;
27293;SDS011;14785;52.556;13.430;2023-08-24T00:10:26;12.07;;;10.87;;
27293;SDS011;14785;52.556;13.430;2023-08-24T00:12:52;14.75;;;13.65;;
27293;SDS011;14785;52.556;13.430;2023-08-24T00:15:17;11.40;;;10.27;;
27293;SDS011;14785;52.556;13.430;2023-08-24T00:17:43;11.47;;;8.50;;
27293;SDS011;14785;52.556;13.430;2023-08-24T00:20:09;10.82;;;9.70;;
27293;SDS011;14785;52.556;13.430;2023-08-24T00:22:36;10.32;;;9.15;;
27293;SDS011;14785;52.556;13.430;2023-08-24T00:25:04;9.93;;;9.02;;
27293;SDS011;14785;52.556;13.430;2023-08-24T00:27:31;11.57;;;10.48;;
27293;SDS011;14785;52.556;13.430;2023-08-24T00:32:23;11.83;;;10.73;;
27293;SDS011;14785;52.556;13.430;2023-08-24T00:34:49;13.50;;;12.23;;
27293;SDS011;14785;52.556;13.430;2023-08-24T00:37:15;15.23;;;14.10;;
27293;SDS011;14785;52.556;13.430;2023-08-24T00:39:41;12.93;;;11.73;;
27293;SDS011;14785;52.556;13.430;2023-08-24T00:42:07;15.57;;;14.20;;
27293;SDS011;14785;52.556;13.430;2023-08-24T00:44:33;16.00;;;14.80;;
27293;SDS011;14785;52.556;13.430;2023-08-24T00:46:59;12.83;;;11.83;;
27293;SDS011;14785;52.556;13.430;2023-08-24T00:49:25;12.02;;;11.02;;
27293;SDS011;14785;52.556;13.430;2023-08-24T00:51:51;15.05;;;12.52;;
27293;SDS011;14785;52.556;13.430;2023-08-24T00:54:17;13.05;;;11.73;;
27293;SDS011;14785;52.556;13.430;2023-08-24T00:56:43;13.10;;;11.65;;
27293;SDS011;14785;52.556;13.430;2023-08-24T00:59:09;14.77;;;13.23;;
27293;SDS011;14785;52.556;13.430;2023-08-24T01:01:34;14.27;;;12.87;;
27293;SDS011;14785;52.556;13.430;2023-08-24T01:04:01;18.02;;;16.25;;
27293;SDS011;14785;52.556;13.430;2023-08-24T01:06:27;16.38;;;14.23;;
27293;SDS011;14785;52.556;13.430;2023-08-24T01:08:53;17.10;;;15.53;;
27293;SDS011;14785;52.556;13.430;2023-08-24T01:13:57;12.75;;;11.45;;
27293;SDS011;14785;52.556;13.430;2023-08-24T01:16:29;12.45;;;11.32;;
27293;SDS011;14785;52.556;13.430;2023-08-24T01:19:01;14.90;;;12.88;;
27293;SDS011;14785;52.556;13.430;2023-08-24T01:21:29;19.10;;;17.40;;
27293;SDS011;14785;52.556;13.430;2023-08-24T01:24:01;18.08;;;16.63;;
27293;SDS011;14785;52.556;13.430;2023-08-24T01:26:29;16.63;;;15.32;;
27293;SDS011;14785;52.556;13.430;2023-08-24T01:28:55;13.15;;;11.65;;
27293;SDS011;14785;52.556;13.430;2023-08-24T01:33:47;11.67;;;9.80;;
27293;SDS011;14785;52.556;13.430;2023-08-24T01:36:13;15.17;;;13.87;;
27293;SDS011;14785;52.556;13.430;2023-08-24T01:38:40;14.18;;;12.73;;
27293;SDS011;14785;52.556;13.430;2023-08-24T01:43:36;17.17;;;15.68;;
27293;SDS011;14785;52.556;13.430;2023-08-24T01:46:04;19.60;;;14.27;;
27293;SDS011;14785;52.556;13.430;2023-08-24T01:48:33;15.23;;;13.57;;
27293;SDS011;14785;52.556;13.430;2023-08-24T01:51:01;15.43;;;13.93;;
27293;SDS011;14785;52.556;13.430;2023-08-24T01:53:27;16.17;;;14.57;;
27293;SDS011;14785;52.556;13.430;2023-08-24T01:55:54;17.08;;;15.38;;
27293;SDS011;14785;52.556;13.430;2023-08-24T01:58:20;17.87;;;16.37;;
27293;SDS011;14785;52.556;13.430;2023-08-24T02:00:45;11.43;;;10.30;;
27293;SDS011;14785;52.556;13.430;2023-08-24T02:03:11;18.07;;;16.50;;
27293;SDS011;14785;52.556;13.430;2023-08-24T02:05:36;19.60;;;17.70;;
27293;SDS011;14785;52.556;13.430;2023-08-24T02:08:02;14.23;;;12.93;;
27293;SDS011;14785;52.556;13.430;2023-08-24T02:10:27;13.07;;;11.77;;
27293;SDS011;14785;52.556;13.430;2023-08-24T02:12:53;12.55;;;11.40;;
27293;SDS011;14785;52.556;13.430;2023-08-24T02:15:18;18.47;;;17.00;;
27293;SDS011;14785;52.556;13.430;2023-08-24T02:17:44;13.80;;;12.37;;
27293;SDS011;14785;52.556;13.430;2023-08-24T02:20:10;25.93;;;24.10;;
27293;SDS011;14785;52.556;13.430;2023-08-24T02:22:36;12.40;;;11.18;;
27293;SDS011;14785;52.556;13.430;2023-08-24T02:25:02;40.42;;;37.67;;
27293;SDS011;14785;52.556;13.430;2023-08-24T02:27:29;12.02;;;10.93;;
27293;SDS011;14785;52.556;13.430;2023-08-24T02:29:57;13.55;;;10.35;;
27293;SDS011;14785;52.556;13.430;2023-08-24T02:32:23;12.33;;;11.13;;
27293;SDS011;14785;52.556;13.430;2023-08-24T02:34:49;10.45;;;9.45;;
27293;SDS011;14785;52.556;13.430;2023-08-24T02:37:14;12.13;;;11.07;;
27293;SDS011;14785;52.556;13.430;2023-08-24T02:39:40;13.07;;;11.80;;
27293;SDS011;14785;52.556;13.430;2023-08-24T02:42:05;13.43;;;10.63;;
27293;SDS011;14785;52.556;13.430;2023-08-24T02:44:31;13.40;;;11.10;;
27293;SDS011;14785;52.556;13.430;2023-08-24T02:46:56;20.70;;;18.87;;
27293;SDS011;14785;52.556;13.430;2023-08-24T02:49:22;16.27;;;14.00;;
27293;SDS011;14785;52.556;13.430;2023-08-24T02:51:47;15.67;;;14.37;;
27293;SDS011;14785;52.556;13.430;2023-08-24T02:54:13;21.10;;;19.03;;
27293;SDS011;14785;52.556;13.430;2023-08-24T02:56:38;13.67;;;12.50;;
27293;SDS011;14785;52.556;13.430;2023-08-24T02:59:03;17.53;;;16.03;;
27293;SDS011;14785;52.556;13.430;2023-08-24T03:01:29;21.83;;;19.73;;
27293;SDS011;14785;52.556;13.430;2023-08-24T03:03:56;27.10;;;25.10;;
27293;SDS011;14785;52.556;13.430;2023-08-24T03:06:21;23.38;;;21.58;;
27293;SDS011;14785;52.556;13.430;2023-08-24T03:08:49;17.27;;;15.90;;
27293;SDS011;14785;52.556;13.430;2023-08-24T03:11:14;19.87;;;18.43;;
27293;SDS011;14785;52.556;13.430;2023-08-24T03:13:40;17.73;;;16.43;;
27293;SDS011;14785;52.556;13.430;2023-08-24T03:16:06;15.80;;;14.37;;
27293;SDS011;14785;52.556;13.430;2023-08-24T03:18:33;13.40;;;12.07;;
27293;SDS011;14785;52.556;13.430;2023-08-24T03:20:58;14.43;;;13.03;;
27293;SDS011;14785;52.556;13.430;2023-08-24T03:23:24;19.10;;;12.35;;
27293;SDS011;14785;52.556;13.430;2023-08-24T03:25:50;16.20;;;14.70;;
27293;SDS011;14785;52.556;13.430;2023-08-24T03:28:15;15.07;;;13.17;;
27293;SDS011;14785;52.556;13.430;2023-08-24T03:30:45;16.13;;;12.13;;
27293;SDS011;14785;52.556;13.430;2023-08-24T03:33:13;15.23;;;13.77;;
27293;SDS011;14785;52.556;13.430;2023-08-24T03:35:39;12.03;;;10.90;;
27293;SDS011;14785;52.556;13.430;2023-08-24T03:38:06;13.45;;;9.68;;
27293;SDS011;14785;52.556;13.430;2023-08-24T03:40:32;12.20;;;10.38;;
27293;SDS011;14785;52.556;13.430;2023-08-24T03:42:58;12.83;;;10.43;;
27293;SDS011;14785;52.556;13.430;2023-08-24T03:45:23;15.20;;;10.70;;
27293;SDS011;14785;52.556;13.430;2023-08-24T03:47:49;12.17;;;8.40;;
27293;SDS011;14785;52.556;13.430;2023-08-24T03:50:15;9.60;;;8.60;;
27293;SDS011;14785;52.556;13.430;2023-08-24T03:52:40;7.93;;;7.22;;
27293;SDS011;14785;52.556;13.430;2023-08-24T03:55:06;8.37;;;7.57;;
27293;SDS011;14785;52.556;13.430;2023-08-24T03:57:32;10.77;;;7.90;;
27293;SDS011;14785;52.556;13.430;2023-08-24T03:59:57;8.43;;;7.60;;
27293;SDS011;14785;52.556;13.430;2023-08-24T04:02:23;8.27;;;7.13;;
27293;SDS011;14785;52.556;13.430;2023-08-24T04:04:49;8.43;;;7.40;;
27293;SDS011;14785;52.556;13.430;2023-08-24T04:07:15;8.48;;;7.75;;
27293;SDS011;14785;52.556;13.430;2023-08-24T04:09:40;8.93;;;7.40;;
27293;SDS011;14785;52.556;13.430;2023-08-24T04:12:06;8.37;;;7.57;;
27293;SDS011;14785;52.556;13.430;2023-08-24T04:14:31;10.45;;;9.52;;
27293;SDS011;14785;52.556;13.430;2023-08-24T04:16:57;11.10;;;10.27;;
27293;SDS011;14785;52.556;13.430;2023-08-24T04:19:23;11.03;;;10.07;;
27293;SDS011;14785;52.556;13.430;2023-08-24T04:21:49;12.55;;;11.45;;
27293;SDS011;14785;52.556;13.430;2023-08-24T04:24:16;12.50;;;11.38;;
27293;SDS011;14785;52.556;13.430;2023-08-24T04:26:41;15.90;;;14.73;;
27293;SDS011;14785;52.556;13.430;2023-08-24T04:29:07;13.93;;;7.75;;
27293;SDS011;14785;52.556;13.430;2023-08-24T04:31:32;10.70;;;8.10;;
27293;SDS011;14785;52.556;13.430;2023-08-24T04:33:58;10.10;;;8.60;;
27293;SDS011;14785;52.556;13.430;2023-08-24T04:36:24;8.15;;;7.35;;
27293;SDS011;14785;52.556;13.430;2023-08-24T04:38:50;14.47;;;13.37;;
27293;SDS011;14785;52.556;13.430;2023-08-24T04:41:15;17.80;;;16.57;;
27293;SDS011;14785;52.556;13.430;2023-08-24T04:43:42;22.13;;;20.73;;
27293;SDS011;14785;52.556;13.430;2023-08-24T04:46:07;28.30;;;26.60;;
27293;SDS011;14785;52.556;13.430;2023-08-24T04:48:33;18.07;;;16.43;;
27293;SDS011;14785;52.556;13.430;2023-08-24T04:51:00;12.05;;;10.82;;
27293;SDS011;14785;52.556;13.430;2023-08-24T04:53:26;8.90;;;8.10;;
27293;SDS011;14785;52.556;13.430;2023-08-24T04:55:52;11.53;;;10.63;;
27293;SDS011;14785;52.556;13.430;2023-08-24T04:58:17;12.35;;;11.30;;
27293;SDS011;14785;52.556;13.430;2023-08-24T05:00:43;9.97;;;8.63;;
27293;SDS011;14785;52.556;13.430;2023-08-24T05:03:08;9.73;;;8.90;;
27293;SDS011;14785;52.556;13.430;2023-08-24T05:05:34;8.25;;;7.55;;
27293;SDS011;14785;52.556;13.430;2023-08-24T05:10:29;9.70;;;7.40;;
27293;SDS011;14785;52.556;13.430;2023-08-24T05:12:55;7.65;;;6.82;;
27293;SDS011;14785;52.556;13.430;2023-08-24T05:15:21;7.68;;;6.70;;
27293;SDS011;14785;52.556;13.430;2023-08-24T05:17:46;8.00;;;7.20;;
27293;SDS011;14785;52.556;13.430;2023-08-24T05:20:12;7.80;;;7.10;;
27293;SDS011;14785;52.556;13.430;2023-08-24T06:01:33;9.15;;;8.35;;
27293;SDS011;14785;52.556;13.430;2023-08-24T06:04:24;11.65;;;10.68;;
27293;SDS011;14785;52.556;13.430;2023-08-24T06:07:30;12.70;;;11.43;;
27293;SDS011;14785;52.556;13.430;2023-08-24T06:57:06;12.52;;;11.40;;
27293;SDS011;14785;52.556;13.430;2023-08-24T07:00:35;12.10;;;11.10;;
27293;SDS011;14785;52.556;13.430;2023-08-24T07:28:32;11.85;;;7.97;;
27293;SDS011;14785;52.556;13.430;2023-08-24T07:30:58;12.38;;;10.27;;
27293;SDS011;14785;52.556;13.430;2023-08-24T07:33:24;9.85;;;7.60;;
27293;SDS011;14785;52.556;13.430;2023-08-24T07:35:50;7.50;;;6.78;;
27293;SDS011;14785;52.556;13.430;2023-08-24T07:38:15;10.77;;;7.20;;
27293;SDS011;14785;52.556;13.430;2023-08-24T07:40:43;6.65;;;5.93;;
27293;SDS011;14785;52.556;13.430;2023-08-24T07:43:08;8.85;;;6.43;;
27293;SDS011;14785;52.556;13.430;2023-08-24T07:45:34;12.10;;;6.10;;
27293;SDS011;14785;52.556;13.430;2023-08-24T07:48:00;8.30;;;5.87;;
27293;SDS011;14785;52.556;13.430;2023-08-24T07:50:25;7.17;;;6.03;;
27293;SDS011;14785;52.556;13.430;2023-08-24T07:52:51;10.93;;;6.63;;
27293;SDS011;14785;52.556;13.430;2023-08-24T07:55:17;7.60;;;6.00;;
27293;SDS011;14785;52.556;13.430;2023-08-24T07:57:43;11.75;;;10.63;;
27293;SDS011;14785;52.556;13.430;2023-08-24T08:00:10;9.50;;;8.70;;
27293;SDS011;14785;52.556;13.430;2023-08-24T08:02:38;12.05;;;11.15;;
27293;SDS011;14785;52.556;13.430;2023-08-24T08:05:04;8.13;;;7.10;;
27293;SDS011;14785;52.556;13.430;2023-08-24T08:07:32;10.30;;;9.25;;
27293;SDS011;14785;52.556;13.430;2023-08-24T08:09:57;11.13;;;10.33;;
27293;SDS011;14785;52.556;13.430;2023-08-24T08:12:23;6.53;;;5.93;;
27293;SDS011;14785;52.556;13.430;2023-08-24T08:14:49;5.70;;;5.13;;
27293;SDS011;14785;52.556;13.430;2023-08-24T08:17:21;6.80;;;6.20;;
27293;SDS011;14785;52.556;13.430;2023-08-24T08:19:48;7.60;;;5.55;;
27293;SDS011;14785;52.556;13.430;2023-08-24T08:22:14;5.35;;;4.93;;
27293;SDS011;14785;52.556;13.430;2023-08-24T08:24:39;6.43;;;5.83;;
27293;SDS011;14785;52.556;13.430;2023-08-24T08:27:04;10.67;;;6.07;;
27293;SDS011;14785;52.556;13.430;2023-08-24T08:29:30;6.67;;;6.17;;
27293;SDS011;14785;52.556;13.430;2023-08-24T08:31:55;6.13;;;5.57;;
27293;SDS011;14785;52.556;13.430;2023-08-24T08:34:21;8.50;;;7.60;;
27293;SDS011;14785;52.556;13.430;2023-08-24T08:36:46;10.20;;;6.43;;
27293;SDS011;14785;52.556;13.430;2023-08-24T08:39:12;11.47;;;9.57;;
27293;SDS011;14785;52.556;13.430;2023-08-24T08:41:43;9.50;;;8.80;;
27293;SDS011;14785;52.556;13.430;2023-08-24T08:44:11;7.45;;;6.85;;
27293;SDS011;14785;52.556;13.430;2023-08-24T08:46:39;6.30;;;5.70;;
27293;SDS011;14785;52.556;13.430;2023-08-24T08:49:06;5.60;;;5.18;;
27293;SDS011;14785;52.556;13.430;2023-08-24T08:51:33;6.50;;;5.40;;
27293;SDS011;14785;52.556;13.430;2023-08-24T08:54:00;9.73;;;7.20;;
27293;SDS011;14785;52.556;13.430;2023-08-24T08:56:27;11.40;;;6.90;;
27293;SDS011;14785;52.556;13.430;2023-08-24T08:58:54;9.10;;;7.45;;
27293;SDS011;14785;52.556;13.430;2023-08-24T09:01:21;8.60;;;6.43;;
27293;SDS011;14785;52.556;13.430;2023-08-24T09:03:49;11.23;;;5.95;;
27293;SDS011;14785;52.556;13.430;2023-08-24T09:06:15;12.90;;;8.43;;
27293;SDS011;14785;52.556;13.430;2023-08-24T09:08:42;9.65;;;7.30;;
27293;SDS011;14785;52.556;13.430;2023-08-24T09:11:08;6.05;;;5.43;;
27293;SDS011;14785;52.556;13.430;2023-08-24T09:13:34;6.20;;;5.60;;
27293;SDS011;14785;52.556;13.430;2023-08-24T09:16:06;9.87;;;6.47;;
27293;SDS011;14785;52.556;13.430;2023-08-24T09:18:34;8.02;;;7.10;;
27293;SDS011;14785;52.556;13.430;2023-08-24T09:21:07;9.80;;;5.65;;
27293;SDS011;14785;52.556;13.430;2023-08-24T09:23:37;10.63;;;5.63;;
27293;SDS011;14785;52.556;13.430;2023-08-24T09:26:09;6.82;;;4.90;;
27293;SDS011;14785;52.556;13.430;2023-08-24T09:28:34;6.47;;;5.70;;
27293;SDS011;14785;52.556;13.430;2023-08-24T09:31:01;8.40;;;5.68;;
27293;SDS011;14785;52.556;13.430;2023-08-24T09:33:28;6.63;;;5.40;;
27293;SDS011;14785;52.556;13.430;2023-08-24T09:35:55;7.30;;;5.68;;
27293;SDS011;14785;52.556;13.430;2023-08-24T09:38:26;9.23;;;6.15;;
27293;SDS011;14785;52.556;13.430;2023-08-24T09:40:53;11.10;;;5.72;;
27293;SDS011;14785;52.556;13.430;2023-08-24T09:43:19;6.93;;;5.32;;
27293;SDS011;14785;52.556;13.430;2023-08-24T09:45:52;8.20;;;4.78;;
27293;SDS011;14785;52.556;13.430;2023-08-24T09:48:19;5.25;;;4.75;;
27293;SDS011;14785;52.556;13.430;2023-08-24T09:50:46;7.00;;;4.70;;
27293;SDS011;14785;52.556;13.430;2023-08-24T09:53:17;8.20;;;5.40;;
27293;SDS011;14785;52.556;13.430;2023-08-24T09:56:06;7.38;;;5.10;;
27293;SDS011;14785;52.556;13.430;2023-08-24T09:58:32;5.72;;;4.93;;
27293;SDS011;14785;52.556;13.430;2023-08-24T10:00:59;7.85;;;5.25;;
27293;SDS011;14785;52.556;13.430;2023-08-24T10:03:27;10.10;;;5.60;;
27293;SDS011;14785;52.556;13.430;2023-08-24T10:05:55;8.35;;;5.20;;
27293;SDS011;14785;52.556;13.430;2023-08-24T10:08:27;7.75;;;5.70;;
27293;SDS011;14785;52.556;13.430;2023-08-24T10:10:56;8.45;;;6.28;;
27293;SDS011;14785;52.556;13.430;2023-08-24T10:16:15;5.78;;;4.88;;
27293;SDS011;14785;52.556;13.430;2023-08-24T10:18:46;6.05;;;4.72;;
27293;SDS011;14785;52.556;13.430;2023-08-24T10:23:40;5.55;;;5.05;;
27293;SDS011;14785;52.556;13.430;2023-08-24T10:26:07;6.10;;;4.57;;
27293;SDS011;14785;52.556;13.430;2023-08-24T10:28:34;5.85;;;4.80;;
27293;SDS011;14785;52.556;13.430;2023-08-24T10:33:27;8.07;;;4.97;;
27293;SDS011;14785;52.556;13.430;2023-08-24T10:35:53;6.10;;;4.60;;
27293;SDS011;14785;52.556;13.430;2023-08-24T10:38:23;5.72;;;4.82;;
27293;SDS011;14785;52.556;13.430;2023-08-24T10:40:52;6.10;;;4.38;;
27293;SDS011;14785;52.556;13.430;2023-08-24T10:53:56;8.77;;;5.38;;
27293;SDS011;14785;52.556;13.430;2023-08-24T10:56:35;10.07;;;5.43;;
27293;SDS011;14785;52.556;13.430;2023-08-24T10:59:13;13.18;;;5.10;;
27293;SDS011;14785;52.556;13.430;2023-08-24T11:02:03;6.45;;;5.20;;
27293;SDS011;14785;52.556;13.430;2023-08-24T11:04:29;6.37;;;4.80;;
27293;SDS011;14785;52.556;13.430;2023-08-24T11:06:55;5.80;;;4.20;;
27293;SDS011;14785;52.556;13.430;2023-08-24T11:09:50;8.95;;;4.65;;
27293;SDS011;14785;52.556;13.430;2023-08-24T11:12:15;4.95;;;4.45;;
27293;SDS011;14785;52.556;13.430;2023-08-24T11:14:50;6.03;;;5.18;;
27293;SDS011;14785;52.556;13.430;2023-08-24T11:17:19;6.40;;;4.85;;
27293;SDS011;14785;52.556;13.430;2023-08-24T11:19:51;8.80;;;5.10;;
27293;SDS011;14785;52.556;13.430;2023-08-24T11:22:17;6.57;;;5.20;;
27293;SDS011;14785;52.556;13.430;2023-08-24T11:24:43;12.50;;;5.47;;
27293;SDS011;14785;52.556;13.430;2023-08-24T11:27:12;6.72;;;5.10;;
27293;SDS011;14785;52.556;13.430;2023-08-24T11:29:37;7.15;;;5.70;;
27293;SDS011;14785;52.556;13.430;2023-08-24T11:32:04;8.27;;;5.43;;
27293;SDS011;14785;52.556;13.430;2023-08-24T11:34:31;5.13;;;4.70;;
27293;SDS011;14785;52.556;13.430;2023-08-24T11:37:01;5.80;;;4.90;;
27293;SDS011;14785;52.556;13.430;2023-08-24T11:39:27;7.15;;;5.38;;
27293;SDS011;14785;52.556;13.430;2023-08-24T11:42:00;6.38;;;5.78;;
27293;SDS011;14785;52.556;13.430;2023-08-24T11:44:28;7.07;;;5.22;;
27293;SDS011;14785;52.556;13.430;2023-08-24T11:46:57;9.15;;;5.47;;
27293;SDS011;14785;52.556;13.430;2023-08-24T11:49:24;5.75;;;5.20;;
27293;SDS011;14785;52.556;13.430;2023-08-24T11:51:50;7.75;;;4.88;;
27293;SDS011;14785;52.556;13.430;2023-08-24T11:54:18;7.28;;;4.50;;
27293;SDS011;14785;52.556;13.430;2023-08-24T11:56:52;8.70;;;5.07;;
27293;SDS011;14785;52.556;13.430;2023-08-24T11:59:17;7.80;;;4.95;;
27293;SDS011;14785;52.556;13.430;2023-08-24T12:01:44;6.03;;;4.93;;
27293;SDS011;14785;52.556;13.430;2023-08-24T12:04:11;17.35;;;6.70;;
27293;SDS011;14785;52.556;13.430;2023-08-24T12:06:37;12.13;;;5.55;;
27293;SDS011;14785;52.556;13.430;2023-08-24T12:11:30;9.47;;;5.23;;
27293;SDS011;14785;52.556;13.430;2023-08-24T12:14:00;6.03;;;5.15;;
27293;SDS011;14785;52.556;13.430;2023-08-24T12:18:57;5.70;;;5.18;;
27293;SDS011;14785;52.556;13.430;2023-08-24T12:21:25;9.13;;;5.63;;
27293;SDS011;14785;52.556;13.430;2023-08-24T12:23:55;9.55;;;5.63;;
27293;SDS011;14785;52.556;13.430;2023-08-24T12:26:30;7.30;;;5.75;;
27293;SDS011;14785;52.556;13.430;2023-08-24T12:29:00;6.30;;;5.70;;
27293;SDS011;14785;52.556;13.430;2023-08-24T12:31:28;7.05;;;5.78;;
27293;SDS011;14785;52.556;13.430;2023-08-24T12:33:59;9.38;;;5.40;;
27293;SDS011;14785;52.556;13.430;2023-08-24T12:36:24;7.13;;;5.38;;
27293;SDS011;14785;52.556;13.430;2023-08-24T12:38:50;11.77;;;5.82;;
27293;SDS011;14785;52.556;13.430;2023-08-24T12:43:41;8.33;;;5.60;;
27293;SDS011;14785;52.556;13.430;2023-08-24T12:48:34;5.35;;;4.85;;
27293;SDS011;14785;52.556;13.430;2023-08-24T12:51:01;7.93;;;5.10;;
27293;SDS011;14785;52.556;13.430;2023-08-24T12:53:27;5.93;;;4.85;;
27293;SDS011;14785;52.556;13.430;2023-08-24T12:55:52;13.27;;;5.60;;
27293;SDS011;14785;52.556;13.430;2023-08-24T12:58:18;5.55;;;5.00;;
27293;SDS011;14785;52.556;13.430;2023-08-24T13:00:45;5.75;;;5.22;;
27293;SDS011;14785;52.556;13.430;2023-08-24T13:03:10;7.80;;;5.22;;
27293;SDS011;14785;52.556;13.430;2023-08-24T13:05:40;6.03;;;5.13;;
27293;SDS011;14785;52.556;13.430;2023-08-24T13:10:32;7.90;;;5.13;;
27293;SDS011;14785;52.556;13.430;2023-08-24T13:12:59;5.28;;;4.75;;
27293;SDS011;14785;52.556;13.430;2023-08-24T13:15:27;9.38;;;5.22;;
27293;SDS011;14785;52.556;13.430;2023-08-24T13:17:53;6.85;;;4.78;;
27293;SDS011;14785;52.556;13.430;2023-08-24T13:20:18;5.60;;;5.07;;
27293;SDS011;14785;52.556;13.430;2023-08-24T13:22:44;9.93;;;5.10;;
27293;SDS011;14785;52.556;13.430;2023-08-24T13:25:09;5.13;;;4.60;;
27293;SDS011;14785;52.556;13.430;2023-08-24T13:27:35;5.13;;;4.63;;
27293;SDS011;14785;52.556;13.430;2023-08-24T13:30:01;9.60;;;4.68;;
27293;SDS011;14785;52.556;13.430;2023-08-24T13:32:27;8.05;;;5.38;;
27293;SDS011;14785;52.556;13.430;2023-08-24T13:34:53;10.27;;;5.20;;
27293;SDS011;14785;52.556;13.430;2023-08-24T13:37:18;5.70;;;5.10;;
27293;SDS011;14785;52.556;13.430;2023-08-24T13:39:44;12.40;;;5.25;;
27293;SDS011;14785;52.556;13.430;2023-08-24T13:42:11;6.15;;;5.25;;
27293;SDS011;14785;52.556;13.430;2023-08-24T13:44:38;5.35;;;4.85;;
27293;SDS011;14785;52.556;13.430;2023-08-24T13:47:04;8.27;;;4.45;;
27293;SDS011;14785;52.556;13.430;2023-08-24T13:49:29;6.88;;;4.68;;
27293;SDS011;14785;52.556;13.430;2023-08-24T13:51:56;8.55;;;5.65;;
27293;SDS011;14785;52.556;13.430;2023-08-24T13:54:22;5.13;;;4.70;;
27293;SDS011;14785;52.556;13.430;2023-08-24T13:56:51;6.28;;;5.22;;
27293;SDS011;14785;52.556;13.430;2023-08-24T13:59:18;5.57;;;4.53;;
27293;SDS011;14785;52.556;13.430;2023-08-24T14:01:45;5.07;;;4.53;;
27293;SDS011;14785;52.556;13.430;2023-08-24T14:04:11;5.90;;;4.70;;
27293;SDS011;14785;52.556;13.430;2023-08-24T14:06:36;5.37;;;4.87;;
27293;SDS011;14785;52.556;13.430;2023-08-24T14:09:02;4.57;;;4.18;;
27293;SDS011;14785;52.556;13.430;2023-08-24T14:11:29;5.72;;;4.90;;
27293;SDS011;14785;52.556;13.430;2023-08-24T14:13:54;5.32;;;4.43;;
27293;SDS011;14785;52.556;13.430;2023-08-24T14:16:20;6.95;;;4.68;;
27293;SDS011;14785;52.556;13.430;2023-08-24T14:18:46;4.72;;;4.32;;
27293;SDS011;14785;52.556;13.430;2023-08-24T14:21:13;8.07;;;5.00;;
27293;SDS011;14785;52.556;13.430;2023-08-24T14:23:40;6.18;;;4.97;;
27293;SDS011;14785;52.556;13.430;2023-08-24T14:26:07;7.93;;;4.60;;
27293;SDS011;14785;52.556;13.430;2023-08-24T14:31:19;5.85;;;5.38;;
27293;SDS011;14785;52.556;13.430;2023-08-24T14:33:46;6.75;;;5.20;;
27293;SDS011;14785;52.556;13.430;2023-08-24T14:36:11;7.07;;;4.80;;
27293;SDS011;14785;52.556;13.430;2023-08-24T14:38:40;5.22;;;4.72;;
27293;SDS011;14785;52.556;13.430;2023-08-24T14:41:10;6.68;;;4.63;;
27293;SDS011;14785;52.556;13.430;2023-08-24T14:43:37;5.47;;;4.75;;
27293;SDS011;14785;52.556;13.430;2023-08-24T14:46:06;8.15;;;5.20;;
27293;SDS011;14785;52.556;13.430;2023-08-24T14:48:33;4.82;;;4.22;;
27293;SDS011;14785;52.556;13.430;2023-08-24T14:50:59;8.38;;;5.38;;
27293;SDS011;14785;52.556;13.430;2023-08-24T14:53:25;6.03;;;4.75;;
27293;SDS011;14785;52.556;13.430;2023-08-24T14:55:53;5.00;;;4.60;;
27293;SDS011;14785;52.556;13.430;2023-08-24T14:58:20;6.55;;;4.80;;
27293;SDS011;14785;52.556;13.430;2023-08-24T15:00:51;7.93;;;4.85;;
27293;SDS011;14785;52.556;13.430;2023-08-24T15:03:18;5.80;;;4.90;;
27293;SDS011;14785;52.556;13.430;2023-08-24T15:05:45;7.72;;;4.97;;
27293;SDS011;14785;52.556;13.430;2023-08-24T15:08:20;7.28;;;4.95;;
27293;SDS011;14785;52.556;13.430;2023-08-24T15:10:50;7.90;;;5.22;;
27293;SDS011;14785;52.556;13.430;2023-08-24T15:13:16;6.82;;;4.50;;
27293;SDS011;14785;52.556;13.430;2023-08-24T15:15:41;6.85;;;4.63;;
27293;SDS011;14785;52.556;13.430;2023-08-24T15:18:09;5.05;;;4.40;;
27293;SDS011;14785;52.556;13.430;2023-08-24T15:20:36;6.72;;;4.85;;
27293;SDS011;14785;52.556;13.430;2023-08-24T15:23:04;6.68;;;4.60;;
27293;SDS011;14785;52.556;13.430;2023-08-24T15:25:32;5.40;;;4.63;;
27293;SDS011;14785;52.556;13.430;2023-08-24T15:27:59;6.85;;;4.80;;
27293;SDS011;14785;52.556;13.430;2023-08-24T15:30:24;6.85;;;4.95;;
27293;SDS011;14785;52.556;13.430;2023-08-24T15:32:50;7.87;;;4.97;;
27293;SDS011;14785;52.556;13.430;2023-08-24T15:35:15;5.30;;;4.90;;
27293;SDS011;14785;52.556;13.430;2023-08-24T15:37:41;7.35;;;4.63;;
27293;SDS011;14785;52.556;13.430;2023-08-24T15:40:07;5.10;;;4.60;;
27293;SDS011;14785;52.556;13.430;2023-08-24T15:42:34;5.18;;;4.65;;
27293;SDS011;14785;52.556;13.430;2023-08-24T15:45:05;7.78;;;5.80;;
27293;SDS011;14785;52.556;13.430;2023-08-24T15:47:31;10.65;;;5.30;;
27293;SDS011;14785;52.556;13.430;2023-08-24T15:49:56;6.40;;;5.13;;
27293;SDS011;14785;52.556;13.430;2023-08-24T15:54:49;7.47;;;5.40;;
27293;SDS011;14785;52.556;13.430;2023-08-24T15:57:16;5.75;;;5.18;;
27293;SDS011;14785;52.556;13.430;2023-08-24T15:59:41;8.40;;;5.30;;
27293;SDS011;14785;52.556;13.430;2023-08-24T16:02:07;10.47;;;5.27;;
27293;SDS011;14785;52.556;13.430;2023-08-24T16:06:58;7.13;;;5.63;;
27293;SDS011;14785;52.556;13.430;2023-08-24T16:09:26;5.40;;;4.90;;
27293;SDS011;14785;52.556;13.430;2023-08-24T16:11:52;6.82;;;5.03;;
27293;SDS011;14785;52.556;13.430;2023-08-24T16:14:19;6.32;;;5.55;;
27293;SDS011;14785;52.556;13.430;2023-08-24T16:16:44;8.25;;;5.53;;
27293;SDS011;14785;52.556;13.430;2023-08-24T16:19:10;9.50;;;5.70;;
27293;SDS011;14785;52.556;13.430;2023-08-24T16:24:03;4.85;;;4.45;;
27293;SDS011;14785;52.556;13.430;2023-08-24T16:28:54;5.63;;;4.90;;
27293;SDS011;14785;52.556;13.430;2023-08-24T16:33:44;8.43;;;5.65;;
27293;SDS011;14785;52.556;13.430;2023-08-24T16:36:12;7.40;;;6.70;;
27293;SDS011;14785;52.556;13.430;2023-08-24T16:38:38;7.15;;;6.45;;
27293;SDS011;14785;52.556;13.430;2023-08-24T16:41:04;5.47;;;5.03;;
27293;SDS011;14785;52.556;13.430;2023-08-24T16:43:30;7.03;;;6.07;;
27293;SDS011;14785;52.556;13.430;2023-08-24T16:45:56;10.30;;;6.40;;
27293;SDS011;14785;52.556;13.430;2023-08-24T16:50:50;8.63;;;7.50;;
27293;SDS011;14785;52.556;13.430;2023-08-24T16:53:17;5.57;;;5.07;;
27293;SDS011;14785;52.556;13.430;2023-08-24T16:55:43;6.03;;;5.18;;
27293;SDS011;14785;52.556;13.430;2023-08-24T16:58:08;7.87;;;5.83;;
27293;SDS011;14785;52.556;13.430;2023-08-24T17:03:00;6.78;;;6.10;;
27293;SDS011;14785;52.556;13.430;2023-08-24T17:05:26;6.55;;;6.00;;
27293;SDS011;14785;52.556;13.430;2023-08-24T17:10:35;8.88;;;5.55;;
27293;SDS011;14785;52.556;13.430;2023-08-24T17:13:04;7.88;;;5.30;;
27293;SDS011;14785;52.556;13.430;2023-08-24T17:15:32;8.63;;;7.93;;
27293;SDS011;14785;52.556;13.430;2023-08-24T17:17:58;6.68;;;5.50;;
27293;SDS011;14785;52.556;13.430;2023-08-24T17:20:28;7.55;;;5.50;;
27293;SDS011;14785;52.556;13.430;2023-08-24T17:22:53;5.78;;;5.15;;